Extreme weather reports worldwide

Rain

Station
 
Location
 
Name
 
Wind
Knots
Gust
Knots
Vis
SM
Temp/Dew
C
Baro
inHg
METAR
 
KGK PAJZ Koliganek, US Koliganek Airport 39 46 5 3/1 28.79 PAJZ 251304Z AUTO 12039G46KT 5SM -RA BR BKN011 BKN016 OVC031 03/01 A2879 RMK AO2 PK WND 13046/1257 P0000 $
SVW PASV Sparrevohn, US Sparrevohn LRRS Airport 26 46 10 4/-3 28.79 PASV 251255Z AUTO 14026G46KT 10SM -RA BKN045 BKN130 04/M04 A2879 RMK AO2 PK WND 13055/1237 SHRAB1107E1231 SLP759 P0000 T00411038 $
TNC PATC Tin City, US Tin City Long Range Radar Station Airport 30 36 6 1/0 28.63 PATC 251308Z AUTO 15030G36KT 6SM -RASN FEW013 OVC026 01/00 A2863 RMK AO2 SLP696
PTH PAPH Port Heiden, US Port Heiden Airport 25 34 8 3/2 28.86 PAPH 251316Z AUTO 27025G34KT 8SM -RA SCT019 BKN026 OVC038 03/02 A2886 RMK AO2 PK WND 27034/1316 PNO $
PXO LPPS Vila Baleira, PT Porto Santo Airport 23 33 5.59 15/8 30.12 LPPS 251300Z 33023G33KT 9000 -SHRA BKN014 15/08 Q1020

Station
 
Location
 
Name
 
Wind
Knots
Gust
Knots
Vis
SM
Temp/Dew
C
Baro
inHg
METAR
 
KNW PANW New Stuyahok, US New Stuyahok Airport 21 30 5 / 28.71 PANW 251309Z AUTO 10021G30KT 5SM -RA OVC028 A2871 RMK AO2 PK WND 10030/1300 P0000 FZRANO $
BNA KBNA Nashville, US Nashville International Airport 18 30 9 13/8 29.99 KBNA 251253Z 17018G30KT 9SM -RA BKN055 OVC070 14/09 A2999 RMK AO2 PK WND 16030/1204 RAB01E17B49 SLP153 P0000 T01390089
KNOG Orange Grove, US Orange Grove Naval Auxiliary Landing Field 19 27 5 25/18 29.97 KNOG 251256Z AUTO 09019G27KT 5SM -RA CLR 25/18 A2997 RMK AO2 PK WND 09027/1254 RAB1159 SLP129 P0000 T02500183 TSNO $
TIR VOTP Tirupati, IN Tirupati Airport 16 26 1.24 23/22 29.73 VOTP 251300Z 03016G26KT 2000 -RA BR SCT008 BKN012 SCT025CB OVC080 23/22 Q1007 TEMPO 800 RA
DLG PADL Dillingham, US Dillingham Airport 19 25 10 3/2 28.62 PADL 251256Z AUTO 13019G25KT 10SM -RA OVC008 03/03 A2862 RMK AO2 PK WND 13029/1217 CIG 007V011 SLP694 P0001 T00330028
CLP PFCL Clarks Point, US Clarks Point Airport 18 25 3 3/3 28.62 PFCL 251321Z AUTO 17018G25KT 3SM -RA BR OVC003 03/03 A2862 RMK AO2 PK WND 14027/1304 P0000 TSNO
MAA VOMM Chennai, IN Chennai International Airport 18 25 0.87 26/25 29.62 VOMM 251300Z 04018G25KT 1400 R07/2000 R25/1600 TSRA SCT010 SCT015 FEW025CB OVC080 26/25 Q1003 TEMPO 0800 +TSRA
KM25 15 25 10 14/13 29.80 KM25 251315Z AUTO 17015G25KT 10SM -RA OVC012 14/13 A2980 RMK AO2
DUT PADU Unalaska, US Unalaska Airport 19 24 8 3/-1 29.22 PADU 251256Z AUTO 27019G24KT 8SM -RA FEW027 BKN034 OVC041 04/M01 A2922 RMK AO2 PK WND 28031/1225 RAB1157E19B39 SLP898 P0000 T00391011
K2I0 18 24 10 14/11 29.86 K2I0 251315Z AUTO 18018G24KT 10SM RA BKN014 BKN021 OVC035 14/12 A2986 RMK AO2 P0001 T01400115
DCU KDCU Decatur, US Pryor Field Regional Airport 16 24 9 14/12 30.05 KDCU 251253Z AUTO 16016G24KT 9SM -RA SCT048 OVC065 14/12 A3005 RMK AO2 RAB47 SLP173 P0000 T01440122
AKN PAKN King Salmon, US King Salmon Airport 15 24 7 4/2 28.67 PAKN 251321Z AUTO 11015G24KT 7SM -RA OVC022 04/03 A2867 RMK AO2 P0001 T00440028 TSNO $
MGY KMGY Dayton, US Dayton-Wright Brothers Airport 11 24 4 7/6 29.99 KMGY 251315Z AUTO 17011G24KT 4SM +RA BR BKN007 BKN038 OVC047 08/07 A2999 RMK AO2 P0007 T00780067
LCH KLCH Lake Charles, US Lake Charles Regional Airport 15 23 6 17/16 30.01 KLCH 251308Z 32015G23KT 6SM -RA BR FEW012 BKN024 OVC042 17/17 A3001 RMK AO2 WSHFT 1248 P0002 T01720167
HNB KHNB Huntingburg, US Huntingburg Airport 15 23 10 11/10 29.85 KHNB 251256Z AUTO 15015G23KT 10SM -RA BKN037 OVC050 11/11 A2985 RMK AO2 SLP109 P0001 T01110106
KJVW 14 23 0.75 / 29.99 KJVW 251315Z AUTO 23014G23KT 3/4SM RA BKN001 BKN009 OVC016 A2999 RMK AO2 TSNO
KMO PAMB Manokotak, US Manokotak Airport 16 22 2.5 3/2 28.60 PAMB 251256Z AUTO 14016G22KT 2 1/2SM -RA BR OVC004 03/03 A2860 RMK AO2 PK WND 14026/1228 SLP689 P0009 T00330028 $
CID KCID Cedar Rapids, US The Eastern Iowa Airport 14 22 2.5 4/3 29.75 KCID 251310Z 05014G22KT 2 1/2SM -RA BR OVC003 04/04 A2975 RMK AO2 P0000 T00440039
KGEZ Shelbyville, US Shelbyville Municipal Airport 14 22 8 10/7 29.89 KGEZ 251253Z AUTO 16014G22KT 8SM -RA BKN009 OVC013 10/07 A2989 RMK AO2 SLP122 P0012 T01000072
MTO KMTO Mattoon/Charleston, US Coles County Memorial Airport 13 22 10 9/9 29.72 KMTO 251253Z AUTO 14013G22KT 10SM -RA OVC005 09/09 A2972 RMK AO2 CIG 004V008 PRESFR SLP067 P0005 T00940094
MIE KMIE Muncie, US Delaware County Johnson Field 13 22 5 10/7 29.90 KMIE 251253Z 19013G22KT 5SM -RA FEW009 BKN039 OVC048 10/07 A2990 RMK AO2 SLP122 P0007 T01000072
FYV KFYV Fayetteville, US Drake Field 9 22 2 5/4 29.85 KFYV 251317Z 23009G22KT 2SM -RA BR SCT008 BKN013 OVC020 05/04 A2985 RMK AO2 P0001 T00500044
KM21 16 21 7 11/8 29.87 KM21 251315Z AUTO 15016G21KT 7SM -RA SCT017 SCT048 OVC100 12/09 A2987 RMK AO2 T01160087
HRO KHRO Harrison, US Boone County Airport 11 21 8 6/4 29.78 KHRO 251253Z AUTO 27011G21KT 8SM -RA OVC014 07/04 A2978 RMK AO2 PK WND 27028/1227 WSHFT 1150 RAB41 SLP084 P0000 T00670044
UAM PGUA Yigo, Mariana Island, GU Andersen Air Force Base 11 21 5 27/24 29.89 PGUA 251258Z 11011G21KT 5SM RA SCT012 SCT020 BKN027 27/24 A2989 RMK AO2A SCT020 V BKN SLP112 $
MQY KMQY Smyrna, US Smyrna Airport 14 20 10 14/11 29.99 KMQY 251308Z 17014G20KT 10SM -RA FEW009 BKN070 OVC120 14/11 A2999 RMK AO2 PNO $
CSQ KCSQ Creston, US Creston Municipal Airport 14 20 3 2/2 29.79 KCSQ 251315Z AUTO 36014G20KT 3SM RA BKN006 BKN032 OVC050 02/02 A2979 RMK AO2
KFNB Falls City, US Brenner Field 13 20 6 3/2 29.82 KFNB 251301Z AUTO 33013G20KT 6SM RA BR BKN009 OVC044 04/03 A2982 RMK AO2 P0002 T00390028
K1M4 12 20 10 13/9 30.05 K1M4 251256Z AUTO 17012G20KT 10SM -RA OVC035 13/09 A3005 RMK AO2 RAE13B31 SLP643 P0000 T01330094
KEVU Maryville, US Northwest Missouri Regional Airport 11 20 7 4/3 29.80 KEVU 251315Z AUTO 35011G20KT 7SM RA BKN008 OVC014 04/03 A2980 RMK AO2 P0003 T00450039
WAP SCAP Alto Palena, CL Alto Palena Airport 9 20 6.21 9/4 29.82 SCAP 251300Z 22009G20KT 170V260 9999 -SHRA BKN020 09/04 Q1010
SLQ PASL Sleetmute, US Sleetmute Airport 7 20 10 3/0 28.86 PASL 251256Z AUTO 14007G20KT 110V210 10SM -RA BKN023 OVC029 04/01 A2886 RMK AO2 SLP764 P0001 T00390006
AXV KAXV Wapakoneta, US Neil Armstrong Airport 14 19 7 7/6 29.95 KAXV 251315Z AUTO 17014G19KT 7SM -RA OVC008 07/06 A2995 RMK AO2
ROG KROG Rogers, US Rogers Municipal Airport-Carter Field 14 19 7 5/4 29.81 KROG 251258Z 25014G19KT 7SM -RA OVC006 05/04 A2981 RMK AO2 CIG 004V010 SLP095 T00500044 PNO $
CRX KCRX Corinth, US Roscoe Turner Airport 13 19 5 14/13 29.93 KCRX 251315Z AUTO 16013G19KT 5SM -RA FEW004 BKN016 OVC034 14/13 A2993 RMK AO2
TXK KTXK Texarkana, US Texarkana Regional Webb Field 12 19 10 9/4 29.97 KTXK 251253Z 27012G19KT 10SM -RA CLR 09/04 A2997 RMK AO2 SLP146 P0000 T00940044
KFKR Frankfort, US Frankfort Municipal Airport 14 17 10 9/8 29.86 KFKR 251315Z AUTO 18014G17KT 10SM -RA OVC007 10/08 A2986 RMK AO2 T00970082
KTYQ Indianapolis, US Indianapolis Executive Airport 13 17 10 7/7 29.87 KTYQ 251310Z AUTO 15013G17KT 10SM -RA OVC005 08/07 A2987 RMK AO2 P0001 T00780072
CLU KBAK Columbus, US Columbus Municipal Airport 12 17 7 8/7 29.91 KBAK 251300Z 16012G17KT 7SM BKN009 BKN022 OVC039 08/07 A2991 RA
EGX PAII Egegik, US Egegik Airport 12 17 2.5 3/3 28.72 PAII 251309Z AUTO 19012G17KT 2 1/2SM -RA BR BKN007 BKN013 OVC023 03/03 A2872 RMK AO2 CIG 007V010 P0001
KCNC Chariton, US Chariton Municipal Airport 12 17 5 4/4 29.76 KCNC 251315Z AUTO 36012G17KT 5SM -RA OVC004 04/04 A2976 RMK AO2
KI19 10 17 7 7/7 30.02 KI19 251315Z AUTO 19010G17KT 7SM RA SCT008 BKN043 OVC060 07/07 A3002 RMK AO2 P0003 T00720070
KM40 9 17 2.5 15/14 30.02 KM40 251315Z AUTO 17009G17KT 2 1/2SM -RA FEW003 BKN029 OVC055 15/14 A3002 RMK AO2
SGH KSGH Springfield, US Springfield-Beckley Municipal Airport 9 17 5 7/7 30.00 KSGH 251318Z AUTO 18009G17KT 5SM -RA BR SCT009 BKN032 OVC040 07/07 A3000 RMK AO2 PNO $
K5M9 6 17 5 12/12 29.81 K5M9 251315Z AUTO 18006G17KT 5SM RA OVC008 13/13 A2981 RMK AO2 T01290126